Time;durP1;ratioP1;P1;durP2;ratioP2;P2;SDS_P1;SDS_P2;PMS_P1;PMS_P2;Temp;Humidity;BMP_temperature;BMP_pressure;BME280_temperature;BME280_humidity;BME280_pressure;Samples;Min_cycle;Max_cycle;Signal;HPM_P1;HPM_P2
2021/07/14 00:02:14;;;;;;;7.72;4.00;;;;;;;19.56;100.00;97321.19;5072284;28;20028;-75
2021/07/14 00:04:39;;;;;;;8.38;4.55;;;;;;;19.49;100.00;97292.50;5072370;28;20024;-78
2021/07/14 00:07:05;;;;;;;5.80;3.78;;;;;;;19.39;100.00;97309.75;5072625;28;20028;-78
2021/07/14 00:09:31;;;;;;;9.52;4.57;;;;;;;19.32;100.00;97309.59;5072326;28;20031;-75
2021/07/14 00:11:59;;;;;;;12.27;4.38;;;;;;;19.47;100.00;97325.38;5072065;28;20028;-75
2021/07/14 00:14:35;;;;;;;13.52;4.18;;;;;;;19.34;100.00;97285.88;5072094;28;20009;-76
2021/07/14 00:22:31;;;;;;;12.70;4.55;;;;;;;19.26;100.00;97284.94;5072326;28;20451;-76
2021/07/14 00:24:57;;;;;;;10.75;4.35;;;;;;;19.28;100.00;97295.66;5053804;28;20056;-75
2021/07/14 00:27:24;;;;;;;9.57;4.03;;;;;;;19.31;100.00;97319.09;5072184;28;20071;-75
2021/07/14 00:29:53;;;;;;;10.07;3.92;;;;;;;19.54;100.00;97350.47;5072192;28;20184;-75
2021/07/14 00:32:19;;;;;;;8.15;4.97;;;;;;;19.47;100.00;97323.41;5053907;28;20078;-77
2021/07/14 00:34:45;;;;;;;10.45;4.40;;;;;;;19.47;100.00;97342.00;5070625;28;20331;-76
2021/07/14 00:37:11;;;;;;;7.93;4.35;;;;;;;19.30;100.00;97325.78;5072126;28;20111;-76
2021/07/14 00:39:37;;;;;;;11.02;3.78;;;;;;;19.18;100.00;97319.25;5075898;28;20070;-76
2021/07/14 00:42:07;;;;;;;10.63;4.82;;;;;;;19.43;100.00;97339.16;5072191;28;20140;-79
2021/07/14 00:44:33;;;;;;;8.90;4.20;;;;;;;19.61;100.00;97356.13;5053639;28;20084;-77
2021/07/14 00:47:01;;;;;;;11.93;3.80;;;;;;;19.22;100.00;97334.00;5071502;28;20428;-76
2021/07/14 00:49:27;;;;;;;8.20;4.07;;;;;;;19.15;100.00;97319.19;5071525;28;20131;-76
2021/07/14 00:51:53;;;;;;;10.10;3.70;;;;;;;19.36;100.00;97316.03;5053777;28;20025;-77
2021/07/14 00:54:18;;;;;;;11.75;3.90;;;;;;;19.16;100.00;97313.28;5071760;28;20016;-77
2021/07/14 00:56:48;;;;;;;16.58;4.70;;;;;;;19.05;100.00;97305.91;5071387;28;20031;-78
2021/07/14 00:59:14;;;;;;;13.63;5.25;;;;;;;19.22;100.00;97306.25;5071468;28;20008;-77
2021/07/14 01:01:39;;;;;;;13.77;6.00;;;;;;;19.14;100.00;97303.69;5070758;28;20501;-77
2021/07/14 01:04:11;;;;;;;9.40;5.15;;;;;;;19.36;100.00;97316.81;5070961;28;20109;-76
2021/07/14 01:06:46;;;;;;;8.80;3.70;;;;;;;19.06;100.00;97302.78;5071090;28;20024;-76
2021/07/14 01:09:16;;;;;;;9.93;5.20;;;;;;;18.99;100.00;97286.00;5071318;28;20040;-76
2021/07/14 01:11:42;;;;;;;12.45;5.20;;;;;;;18.83;100.00;97288.06;5070981;28;20033;-78
2021/07/14 01:14:21;;;;;;;9.10;4.32;;;;;;;18.95;100.00;97326.69;5070673;28;20040;-78
2021/07/14 01:16:49;;;;;;;9.75;4.38;;;;;;;19.07;100.00;97401.44;5070777;28;20111;-78
2021/07/14 01:19:24;;;;;;;10.10;4.43;;;;;;;19.12;100.00;97411.41;5070974;28;20025;-77
2021/07/14 01:21:51;;;;;;;11.43;4.32;;;;;;;19.18;100.00;97394.13;5069933;28;20035;-78
2021/07/14 01:24:26;;;;;;;12.52;4.05;;;;;;;19.13;100.00;97336.19;5030093;28;20059;-78
2021/07/14 01:26:58;;;;;;;10.80;4.10;;;;;;;19.10;100.00;97344.44;5069222;28;20509;-76
2021/07/14 01:29:25;;;;;;;7.63;4.57;;;;;;;19.10;100.00;97336.94;5072353;28;20049;-78
2021/07/14 01:31:52;;;;;;;11.45;3.80;;;;;;;18.91;100.00;97338.91;5069425;28;20115;-79
2021/07/14 01:34:21;;;;;;;5.72;3.83;;;;;;;18.89;100.00;97333.69;5050177;28;20052;-76
2021/07/14 01:36:50;;;;;;;7.05;4.03;;;;;;;19.03;100.00;97345.09;5057796;28;20020;-78
2021/07/14 01:39:17;;;;;;;9.00;4.10;;;;;;;19.00;100.00;97343.06;5052160;28;20028;-77
2021/07/14 01:41:46;;;;;;;7.35;3.20;;;;;;;18.92;100.00;97324.66;5058481;28;20035;-76
2021/07/14 01:44:13;;;;;;;8.68;3.53;;;;;;;19.04;100.00;97330.06;5049557;28;20025;-77
2021/07/14 01:46:40;;;;;;;9.95;3.50;;;;;;;18.87;100.00;97307.53;5032025;28;20025;-77
2021/07/14 01:49:12;;;;;;;12.85;3.92;;;;;;;18.55;100.00;97268.06;5050279;28;20052;-79
2021/07/14 01:51:51;;;;;;;12.65;4.18;;;;;;;18.55;100.00;97276.38;5050368;28;20413;-76
2021/07/14 01:54:23;;;;;;;10.85;4.50;;;;;;;18.49;100.00;97255.66;5063705;28;20025;-76
2021/07/14 01:56:50;;;;;;;11.25;3.92;;;;;;;18.57;100.00;97257.44;5051804;28;20029;-77
2021/07/14 01:59:21;;;;;;;10.32;4.68;;;;;;;18.39;100.00;97289.44;5052208;28;20028;-77
2021/07/14 02:01:48;;;;;;;11.82;3.75;;;;;;;18.44;100.00;97314.91;5069805;28;20037;-77
2021/07/14 02:04:31;;;;;;;6.55;3.78;;;;;;;18.75;100.00;97332.63;5069493;28;20119;-74
2021/07/14 02:07:10;;;;;;;8.23;4.05;;;;;;;18.70;100.00;97361.44;5070192;28;20028;-77
2021/07/14 02:09:37;;;;;;;9.00;3.92;;;;;;;18.54;100.00;97349.59;5049325;28;20032;-76
2021/07/14 02:12:06;;;;;;;11.88;4.30;;;;;;;18.60;100.00;97356.44;5069550;28;20032;-78
2021/07/14 02:14:44;;;;;;;9.52;4.18;;;;;;;18.51;100.00;97398.19;5069812;28;20067;-77
2021/07/14 02:17:19;;;;;;;11.30;4.50;;;;;;;18.43;100.00;97363.16;5069746;28;20062;-78
2021/07/14 02:19:51;;;;;;;14.32;4.40;;;;;;;18.48;100.00;97238.22;5052184;28;20028;-77
2021/07/14 02:22:20;;;;;;;12.35;4.95;;;;;;;18.56;100.00;97206.78;5046171;28;20774;-78
2021/07/14 02:24:45;;;;;;;10.88;4.35;;;;;;;18.57;100.00;97172.38;5047169;28;20119;-79
2021/07/14 02:27:11;;;;;;;14.23;4.35;;;;;;;18.49;100.00;97201.09;5049200;28;20143;-76
2021/07/14 02:29:41;;;;;;;14.38;4.80;;;;;;;18.38;100.00;97207.56;5047813;28;20049;-75
2021/07/14 02:32:08;;;;;;;9.63;4.28;;;;;;;18.12;100.00;97220.06;5047983;28;20096;-80
2021/07/14 02:34:36;;;;;;;12.98;4.40;;;;;;;18.10;100.00;97261.16;5049771;28;20040;-75
2021/07/14 02:37:05;;;;;;;15.48;4.43;;;;;;;18.08;100.00;97263.47;5048496;28;20024;-78
2021/07/14 02:39:31;;;;;;;7.72;4.20;;;;;;;18.02;100.00;97259.38;5050043;28;20029;-77
2021/07/14 02:42:05;;;;;;;10.05;4.45;;;;;;;18.05;100.00;97272.50;5049887;28;20016;-78
2021/07/14 02:44:39;;;;;;;11.60;4.55;;;;;;;18.13;100.00;97288.13;5051096;28;20036;-77
2021/07/14 02:47:05;;;;;;;12.25;3.85;;;;;;;18.17;100.00;97280.69;5069357;28;20024;-76
2021/07/14 02:49:35;;;;;;;13.30;4.78;;;;;;;18.33;100.00;97290.91;5051607;28;20527;-77
2021/07/14 02:52:02;;;;;;;8.50;5.38;;;;;;;18.45;100.00;97293.56;5044103;28;20163;-78
2021/07/14 02:54:29;;;;;;;9.07;3.38;;;;;;;18.28;100.00;97294.78;5049022;28;20583;-78
2021/07/14 02:57:00;;;;;;;10.85;4.95;;;;;;;18.33;100.00;97307.50;5050288;28;20108;-76
2021/07/14 02:59:30;;;;;;;11.38;3.72;;;;;;;18.40;100.00;97296.59;5055138;28;20013;-77
2021/07/14 03:01:58;;;;;;;8.43;3.28;;;;;;;18.49;100.00;97277.81;5053618;28;20525;-79
2021/07/14 03:04:32;;;;;;;7.13;5.28;;;;;;;18.50;100.00;97285.00;5052917;28;20055;-80
2021/07/14 03:07:02;;;;;;;6.95;3.22;;;;;;;18.37;100.00;97269.63;5040581;28;20044;-78
2021/07/14 03:09:37;;;;;;;9.38;3.08;;;;;;;18.63;100.00;97283.69;5055087;28;20518;-79
2021/07/14 03:12:10;;;;;;;10.02;4.25;;;;;;;18.73;100.00;97275.56;5073017;28;20116;-79
2021/07/14 03:14:43;;;;;;;9.52;4.28;;;;;;;18.59;100.00;97257.88;5072983;28;20448;-79
2021/07/14 03:17:11;;;;;;;9.00;4.03;;;;;;;18.54;100.00;97255.41;5055095;28;20485;-76
2021/07/14 03:19:38;;;;;;;8.43;3.38;;;;;;;18.50;100.00;97241.47;5054992;28;20381;-77
2021/07/14 03:22:05;;;;;;;6.95;3.47;;;;;;;18.44;100.00;97231.81;5054983;28;20115;-76
2021/07/14 03:24:32;;;;;;;9.98;4.30;;;;;;;18.37;100.00;97233.63;5054856;28;20048;-76
2021/07/14 03:26:59;;;;;;;7.57;3.75;;;;;;;18.41;100.00;97231.75;5072595;28;20379;-78
2021/07/14 03:29:25;;;;;;;6.88;4.68;;;;;;;18.41;100.00;97248.38;5059891;28;20052;-78
2021/07/14 03:31:52;;;;;;;19.35;4.60;;;;;;;18.45;100.00;97271.41;5052568;28;20400;-75
2021/07/14 03:34:17;;;;;;;13.38;4.30;;;;;;;18.43;100.00;97282.84;5052676;28;20394;-76
2021/07/14 03:36:45;;;;;;;9.70;4.07;;;;;;;18.44;100.00;97269.78;5034544;28;20021;-75
2021/07/14 03:39:10;;;;;;;15.65;4.38;;;;;;;18.46;100.00;97271.03;5055876;28;20484;-77
2021/07/14 03:41:38;;;;;;;7.68;3.75;;;;;;;18.56;100.00;97278.00;5057723;28;20104;-78
2021/07/14 03:44:05;;;;;;;9.40;4.32;;;;;;;18.68;100.00;97283.38;5038941;28;20531;-77
2021/07/14 03:46:31;;;;;;;5.63;3.97;;;;;;;18.80;100.00;97287.97;5054097;28;20021;-77
2021/07/14 03:48:57;;;;;;;6.28;4.38;;;;;;;18.66;100.00;97261.59;5052224;28;20469;-78
2021/07/14 03:51:23;;;;;;;9.45;4.47;;;;;;;18.52;100.00;97282.66;5051802;28;20067;-79
2021/07/14 03:53:51;;;;;;;15.68;4.13;;;;;;;18.64;100.00;97276.97;5034821;28;20029;-76
2021/07/14 03:56:17;;;;;;;7.80;5.05;;;;;;;18.68;100.00;97275.88;5052457;28;20427;-76
2021/07/14 03:58:46;;;;;;;8.32;3.85;;;;;;;18.54;100.00;97272.03;5052172;28;20445;-76
2021/07/14 04:01:13;;;;;;;8.57;4.50;;;;;;;18.43;100.00;97293.09;5034795;28;20493;-76
2021/07/14 04:03:39;;;;;;;13.82;4.70;;;;;;;18.58;100.00;97282.00;5036141;28;20508;-78
2021/07/14 04:06:07;;;;;;;6.75;3.85;;;;;;;18.43;100.00;97279.25;5071727;28;20149;-76
2021/07/14 04:08:39;;;;;;;12.63;5.72;;;;;;;18.56;100.00;97269.69;5071821;28;20024;-76
2021/07/14 04:11:06;;;;;;;10.18;4.38;;;;;;;18.43;100.00;97279.25;5071046;28;20507;-78
2021/07/14 04:13:32;;;;;;;10.35;3.83;;;;;;;18.34;100.00;97281.44;5053750;28;20032;-76
2021/07/14 04:15:57;;;;;;;12.70;4.38;;;;;;;18.37;100.00;97253.81;5071702;28;20385;-76
2021/07/14 04:18:23;;;;;;;8.98;4.30;;;;;;;18.43;100.00;97273.72;5071926;28;20028;-76
2021/07/14 04:20:48;;;;;;;10.75;4.80;;;;;;;18.40;100.00;97252.28;5053663;28;20533;-76
2021/07/14 04:23:14;;;;;;;10.80;3.55;;;;;;;18.31;100.00;97251.69;5071669;28;20040;-77
2021/07/14 04:25:39;;;;;;;14.43;4.60;;;;;;;18.50;100.00;97257.28;5053667;28;20388;-78
2021/07/14 04:28:06;;;;;;;11.10;4.70;;;;;;;18.70;100.00;97278.31;5071689;28;20362;-76
2021/07/14 04:30:32;;;;;;;12.98;3.95;;;;;;;18.71;100.00;97269.63;5054185;28;20040;-77
2021/07/14 04:32:57;;;;;;;13.82;4.93;;;;;;;18.73;100.00;97277.56;5071733;28;20384;-78
2021/07/14 04:35:22;;;;;;;9.15;4.13;;;;;;;18.71;100.00;97285.44;5071703;28;20115;-77
2021/07/14 04:37:49;;;;;;;15.25;5.25;;;;;;;18.68;100.00;97286.97;5053414;28;20028;-76
2021/07/14 04:40:15;;;;;;;10.77;4.07;;;;;;;18.97;100.00;97287.53;5069340;28;20470;-77
2021/07/14 04:42:40;;;;;;;8.02;4.20;;;;;;;19.08;100.00;97285.75;5053431;28;20048;-74
2021/07/14 04:45:06;;;;;;;7.28;4.03;;;;;;;19.23;100.00;97301.53;5055476;28;20080;-75
2021/07/14 04:47:32;;;;;;;5.88;3.90;;;;;;;19.09;100.00;97307.59;5062491;28;20025;-74
2021/07/14 04:49:58;;;;;;;6.85;2.97;;;;;;;19.09;100.00;97318.69;5071015;28;20029;-75
2021/07/14 04:52:23;;;;;;;10.77;3.58;;;;;;;19.56;100.00;97306.50;5052427;28;20021;-74
2021/07/14 04:54:48;;;;;;;9.40;2.85;;;;;;;19.93;100.00;97288.09;5050861;28;20039;-75
2021/07/14 04:57:14;;;;;;;7.97;3.20;;;;;;;20.16;100.00;97299.97;5050723;28;20029;-74
2021/07/14 04:59:39;;;;;;;10.88;3.53;;;;;;;20.37;98.12;97293.94;5050930;28;20071;-74
2021/07/14 05:02:06;;;;;;;14.20;4.32;;;;;;;20.05;98.71;97310.09;5051121;28;20473;-75
2021/07/14 05:04:32;;;;;;;13.13;3.90;;;;;;;19.89;100.00;97323.31;5068060;28;20477;-74
2021/07/14 05:06:57;;;;;;;10.13;3.38;;;;;;;19.73;100.00;97320.66;5070861;28;20028;-75
2021/07/14 05:09:22;;;;;;;4.97;2.20;;;;;;;20.14;100.00;97310.63;5070517;28;20499;-74
2021/07/14 05:11:48;;;;;;;13.23;4.78;;;;;;;20.37;96.67;97309.81;5070282;28;20043;-74
2021/07/14 05:14:13;;;;;;;6.95;3.33;;;;;;;20.07;99.83;97312.50;5073065;28;20097;-76
2021/07/14 05:16:39;;;;;;;9.57;3.88;;;;;;;20.40;97.49;97320.16;5070883;28;20025;-80
2021/07/14 05:19:05;;;;;;;7.53;3.13;;;;;;;20.89;96.51;97308.94;5070246;28;20024;-74
2021/07/14 05:21:31;;;;;;;8.50;2.92;;;;;;;21.06;94.33;97314.72;5069774;28;20025;-75
2021/07/14 05:23:56;;;;;;;8.50;3.00;;;;;;;21.05;95.01;97331.78;5070007;28;20549;-74
2021/07/14 05:26:22;;;;;;;6.20;3.08;;;;;;;20.77;94.36;97340.53;5069147;28;20037;-74
2021/07/14 05:28:47;;;;;;;6.07;3.28;;;;;;;20.42;96.28;97353.97;5070017;28;20049;-80
2021/07/14 05:31:13;;;;;;;5.13;2.90;;;;;;;20.09;98.97;97355.41;5053352;28;20092;-85
2021/07/14 05:33:39;;;;;;;8.73;3.40;;;;;;;20.22;99.66;97347.66;5070836;28;20027;-77
2021/07/14 05:36:04;;;;;;;7.25;3.10;;;;;;;20.33;97.31;97354.19;5069606;28;20033;-76
2021/07/14 05:38:30;;;;;;;11.38;2.80;;;;;;;20.24;97.25;97368.34;5051400;28;20484;-82
2021/07/14 05:40:56;;;;;;;7.63;3.65;;;;;;;20.33;97.27;97356.97;5075144;28;20009;-83
2021/07/14 05:43:21;;;;;;;4.32;2.47;;;;;;;20.82;94.17;97359.69;5051703;28;20052;-77
2021/07/14 05:45:47;;;;;;;8.90;2.58;;;;;;;20.90;92.50;97355.81;5051061;28;20039;-78
2021/07/14 05:48:13;;;;;;;8.07;3.45;;;;;;;21.02;92.38;97366.69;5070183;28;20400;-79
2021/07/14 05:50:38;;;;;;;10.27;2.95;;;;;;;20.92;94.83;97361.03;5068605;28;20028;-78
2021/07/14 05:53:05;;;;;;;4.88;3.00;;;;;;;20.68;94.87;97359.47;5069527;28;20070;-77
2021/07/14 05:55:30;;;;;;;8.20;2.65;;;;;;;20.90;94.79;97361.38;5052054;28;20025;-78
2021/07/14 05:57:56;;;;;;;6.32;3.20;;;;;;;20.73;93.63;97357.19;5069928;28;20450;-79
2021/07/14 06:00:21;;;;;;;8.02;3.58;;;;;;;20.34;96.63;97366.13;5051429;28;20108;-78
2021/07/14 06:02:47;;;;;;;6.28;3.17;;;;;;;20.15;98.22;97359.47;5069099;28;20036;-79
2021/07/14 06:05:13;;;;;;;5.75;2.22;;;;;;;20.09;98.64;97360.94;5050920;28;20074;-76
2021/07/14 06:07:39;;;;;;;6.72;2.63;;;;;;;20.05;99.38;97365.63;5068634;28;20036;-75
2021/07/14 06:10:06;;;;;;;7.68;3.08;;;;;;;20.29;98.79;97358.94;5069446;28;20021;-76
2021/07/14 06:12:32;;;;;;;5.45;2.35;;;;;;;20.43;94.14;97375.00;5068876;28;20413;-75
2021/07/14 06:14:57;;;;;;;5.72;2.92;;;;;;;20.48;92.53;97371.91;5069721;28;20031;-75
2021/07/14 06:17:23;;;;;;;13.68;4.25;;;;;;;20.47;93.71;97375.84;5051772;28;20474;-76
2021/07/14 06:19:48;;;;;;;8.15;3.90;;;;;;;20.40;93.78;97375.75;5069896;28;20024;-76
2021/07/14 06:22:14;;;;;;;6.38;3.63;;;;;;;20.69;92.42;97378.59;5068518;28;20028;-75
2021/07/14 06:24:40;;;;;;;7.88;4.35;;;;;;;20.51;92.59;97360.84;5068922;28;20040;-75
2021/07/14 06:27:07;;;;;;;12.15;3.53;;;;;;;20.44;92.56;97359.94;5051469;28;20029;-75
2021/07/14 06:29:32;;;;;;;12.45;4.60;;;;;;;20.42;91.05;97359.53;5069675;28;20044;-75
2021/07/14 06:31:58;;;;;;;9.45;3.90;;;;;;;20.46;91.85;97355.59;5069391;28;20560;-75
2021/07/14 06:34:24;;;;;;;8.98;4.25;;;;;;;20.73;92.05;97354.41;5072280;28;20025;-76
2021/07/14 06:36:50;;;;;;;8.40;3.70;;;;;;;21.08;90.93;97358.84;5055576;28;20036;-73
2021/07/14 06:39:15;;;;;;;11.55;5.13;;;;;;;21.10;88.56;97354.53;5072686;28;20028;-74
2021/07/14 06:41:40;;;;;;;7.68;4.53;;;;;;;20.90;90.56;97355.81;5071391;28;20473;-74
2021/07/14 06:44:06;;;;;;;14.38;3.78;;;;;;;20.82;90.91;97354.13;5071779;28;20047;-73
2021/07/14 06:46:32;;;;;;;12.52;3.70;;;;;;;21.16;88.93;97349.44;5073490;28;20028;-73
2021/07/14 06:48:58;;;;;;;7.63;4.03;;;;;;;21.34;86.51;97362.38;5055664;28;20021;-73
2021/07/14 06:51:24;;;;;;;6.50;2.80;;;;;;;21.67;86.17;97360.72;5073489;28;20032;-73
2021/07/14 06:53:50;;;;;;;9.20;4.90;;;;;;;21.61;86.21;97367.84;5055622;28;20034;-73
2021/07/14 06:56:15;;;;;;;12.38;3.42;;;;;;;21.67;85.48;97366.31;5073501;28;20019;-72
2021/07/14 06:58:41;;;;;;;6.78;2.85;;;;;;;21.87;84.71;97362.09;5073523;28;20020;-74
2021/07/14 07:01:07;;;;;;;17.55;3.90;;;;;;;21.83;84.23;97376.00;5073824;28;20063;-74
2021/07/14 07:03:36;;;;;;;11.32;3.20;;;;;;;21.36;85.12;97371.13;5072636;28;20522;-73
2021/07/14 07:06:03;;;;;;;9.20;3.33;;;;;;;21.43;84.27;97383.50;5073643;28;20091;-72
2021/07/14 07:08:29;;;;;;;11.68;3.40;;;;;;;21.74;84.14;97388.66;5073149;28;20033;-74
2021/07/14 07:10:55;;;;;;;7.25;2.28;;;;;;;21.62;82.90;97394.47;5071706;28;20025;-74
2021/07/14 07:13:20;;;;;;;4.15;2.55;;;;;;;22.02;81.50;97386.16;5073455;28;20489;-74
2021/07/14 07:15:46;;;;;;;11.40;3.38;;;;;;;22.24;80.53;97384.38;5073546;28;20052;-74
2021/07/14 07:18:12;;;;;;;8.30;2.70;;;;;;;22.60;79.02;97394.59;5055155;28;20028;-73
2021/07/14 07:20:39;;;;;;;6.63;3.13;;;;;;;22.60;79.03;97391.81;5072280;28;20024;-73
2021/07/14 07:23:05;;;;;;;8.30;3.30;;;;;;;22.48;79.13;97391.31;5071278;28;20043;-73
2021/07/14 07:25:31;;;;;;;7.97;2.65;;;;;;;22.40;79.37;97396.84;5060910;28;20021;-73
2021/07/14 07:28:01;;;;;;;13.88;3.80;;;;;;;23.09;79.06;97399.69;5061909;28;20020;-74
2021/07/14 07:30:27;;;;;;;6.35;3.15;;;;;;;23.07;78.32;97396.50;5065064;28;20370;-75
2021/07/14 07:32:52;;;;;;;5.03;2.50;;;;;;;23.16;76.50;97405.31;5046018;28;20074;-75
2021/07/14 07:35:18;;;;;;;11.98;3.33;;;;;;;23.40;76.03;97401.06;5063205;28;20032;-74
2021/07/14 07:37:46;;;;;;;4.80;3.28;;;;;;;23.17;75.14;97404.16;5060866;28;20036;-73
2021/07/14 07:40:13;;;;;;;9.02;2.92;;;;;;;22.97;75.57;97407.59;5069138;28;20044;-74
2021/07/14 07:42:39;;;;;;;7.28;2.60;;;;;;;23.07;75.04;97404.88;5071188;28;20020;-75
2021/07/14 07:45:06;;;;;;;7.65;2.60;;;;;;;22.80;77.33;97397.97;5070970;28;20025;-75
2021/07/14 07:47:34;;;;;;;5.95;2.30;;;;;;;23.46;74.04;97391.16;5051013;28;20451;-75
2021/07/14 07:50:00;;;;;;;7.15;2.60;;;;;;;23.70;72.50;97386.81;5071112;28;20048;-73
2021/07/14 07:52:27;;;;;;;8.55;3.60;;;;;;;23.41;76.27;97397.09;5070894;28;20554;-73
2021/07/14 07:54:52;;;;;;;10.18;3.55;;;;;;;24.02;72.64;97393.28;5070925;28;20375;-73
2021/07/14 07:57:17;;;;;;;7.35;3.30;;;;;;;24.00;69.67;97399.25;5069876;28;20373;-72
2021/07/14 07:59:43;;;;;;;4.97;2.75;;;;;;;23.89;69.52;97392.06;5070620;28;20036;-74
2021/07/14 08:02:10;;;;;;;6.47;2.53;;;;;;;24.15;68.08;97385.34;5070723;28;20028;-72
2021/07/14 08:04:35;;;;;;;7.30;2.67;;;;;;;24.37;66.95;97390.50;5052530;28;20502;-74
2021/07/14 08:07:00;;;;;;;7.18;2.28;;;;;;;24.94;65.84;97388.47;5070717;28;20119;-74
2021/07/14 08:09:26;;;;;;;8.73;2.95;;;;;;;25.23;64.37;97382.78;5070764;28;20484;-74
2021/07/14 08:11:51;;;;;;;5.10;3.20;;;;;;;26.61;59.96;97394.00;5070882;28;20113;-75
2021/07/14 08:14:17;;;;;;;3.42;2.00;;;;;;;26.07;60.97;97382.38;5070777;28;20036;-73
2021/07/14 08:16:44;;;;;;;8.73;3.42;;;;;;;25.63;63.71;97379.44;5070584;28;20039;-74
2021/07/14 08:19:10;;;;;;;6.68;3.08;;;;;;;25.24;64.80;97385.19;5070991;28;20115;-74
2021/07/14 08:21:40;;;;;;;7.22;2.75;;;;;;;24.32;66.48;97382.53;5070646;28;20427;-73
2021/07/14 08:27:13;;;;;;;5.82;3.03;;;;;;;25.42;62.36;97377.50;5330640;22;20052;-75
2021/07/14 08:29:38;;;;;;;5.43;2.63;;;;;;;25.63;63.51;97368.22;5014952;28;20018;-74
2021/07/14 08:32:05;;;;;;;6.90;2.60;;;;;;;25.20;63.58;97373.19;5031454;28;20025;-74
2021/07/14 08:34:30;;;;;;;11.52;4.20;;;;;;;24.46;66.67;97370.56;5001478;28;20026;-74
2021/07/14 08:36:59;;;;;;;12.00;2.92;;;;;;;25.03;64.52;97363.66;5017581;28;20037;-75
2021/07/14 08:39:25;;;;;;;6.95;2.75;;;;;;;26.59;58.65;97380.34;5003427;28;20025;-74
2021/07/14 08:41:54;;;;;;;7.90;2.78;;;;;;;27.35;56.61;97369.94;5009615;28;20021;-76
2021/07/14 08:44:23;;;;;;;6.10;2.83;;;;;;;28.87;51.19;97376.94;5028120;28;20544;-74
2021/07/14 08:46:49;;;;;;;7.35;2.65;;;;;;;29.70;50.51;97384.16;5009609;28;20021;-75
2021/07/14 08:49:14;;;;;;;9.88;2.13;;;;;;;30.48;46.42;97379.56;5028799;28;20032;-74
2021/07/14 08:51:42;;;;;;;5.38;2.40;;;;;;;27.50;53.79;97383.44;5028541;28;20040;-74
2021/07/14 08:54:12;;;;;;;5.05;2.65;;;;;;;26.47;57.18;97380.88;5009648;28;20406;-75
2021/07/14 08:56:37;;;;;;;4.18;2.45;;;;;;;27.89;52.65;97390.56;5026532;28;20021;-75
2021/07/14 08:59:03;;;;;;;7.55;2.40;;;;;;;29.84;47.88;97397.19;5009866;28;20471;-74
2021/07/14 09:01:32;;;;;;;6.53;2.20;;;;;;;31.03;45.67;97406.03;5026580;28;20567;-73
2021/07/14 09:04:00;;;;;;;5.57;2.35;;;;;;;29.93;46.96;97391.75;5009966;28;20157;-75
2021/07/14 09:06:25;;;;;;;13.70;2.40;;;;;;;29.92;46.23;97398.59;5009433;28;20013;-74
2021/07/14 09:08:51;;;;;;;9.63;2.40;;;;;;;30.69;44.51;97396.00;5009947;28;20525;-74
2021/07/14 09:11:18;;;;;;;8.40;2.85;;;;;;;31.78;42.58;97409.19;5009880;28;20445;-75
2021/07/14 09:13:43;;;;;;;3.65;2.22;;;;;;;32.39;39.35;97416.66;5001497;28;20030;-75
2021/07/14 09:16:09;;;;;;;8.00;1.88;;;;;;;32.05;40.38;97410.81;5002162;28;20080;-77
2021/07/14 09:18:35;;;;;;;5.63;2.10;;;;;;;31.68;41.18;97410.28;5000788;28;20049;-76
2021/07/14 09:21:02;;;;;;;2.90;1.80;;;;;;;33.05;37.59;97417.72;5013460;28;20025;-75
2021/07/14 09:23:33;;;;;;;3.28;1.50;;;;;;;33.00;38.29;97404.09;5027919;28;20033;-76
2021/07/14 09:26:04;;;;;;;6.00;2.10;;;;;;;31.91;39.71;97400.72;5024017;28;20486;-76
2021/07/14 09:28:35;;;;;;;4.50;2.15;;;;;;;30.29;40.93;97403.03;5028027;28;20160;-76
2021/07/14 09:31:03;;;;;;;5.13;2.22;;;;;;;29.88;42.77;97399.94;5029353;28;20052;-77
2021/07/14 09:33:28;;;;;;;5.47;1.88;;;;;;;31.05;38.97;97403.56;5029353;28;20022;-76
2021/07/14 09:35:57;;;;;;;7.03;2.10;;;;;;;31.69;39.38;97409.06;5028415;28;20038;-73
2021/07/14 09:38:28;;;;;;;8.98;2.42;;;;;;;31.93;38.42;97414.41;5028212;28;20646;-75
2021/07/14 09:40:56;;;;;;;5.55;1.70;;;;;;;31.47;38.92;97419.34;5025648;28;20112;-76
2021/07/14 09:43:35;;;;;;;9.18;3.25;;;;;;;32.74;37.53;97426.81;5027837;28;20078;-78
2021/07/14 09:46:04;;;;;;;9.55;2.40;;;;;;;31.25;37.67;97424.81;5026643;28;20025;-77
2021/07/14 09:48:32;;;;;;;6.80;1.95;;;;;;;33.04;36.25;97424.63;5033933;28;20029;-77
2021/07/14 09:50:59;;;;;;;4.65;2.17;;;;;;;34.39;33.69;97438.31;5026928;28;20045;-74
2021/07/14 09:53:27;;;;;;;2.97;1.67;;;;;;;31.56;35.57;97433.69;5028264;28;20021;-73
2021/07/14 09:55:59;;;;;;;2.65;1.60;;;;;;;29.10;41.30;97430.44;5024601;28;20029;-75
2021/07/14 09:58:33;;;;;;;5.57;1.80;;;;;;;29.03;40.99;97439.03;5026542;28;20018;-75
2021/07/14 10:01:02;;;;;;;4.32;1.50;;;;;;;27.89;41.11;97441.97;5027547;28;20021;-75
2021/07/14 10:03:31;;;;;;;4.30;1.35;;;;;;;28.47;41.56;97440.75;5023757;28;20060;-77
2021/07/14 10:06:15;;;;;;;9.80;2.13;;;;;;;28.57;39.64;97434.16;5018907;28;20021;-74
2021/07/14 10:08:42;;;;;;;11.32;1.35;;;;;;;28.34;37.36;97433.31;5023361;28;20036;-74
2021/07/14 10:11:25;;;;;;;5.38;1.35;;;;;;;27.97;37.75;97434.25;5024143;28;20021;-75
2021/07/14 10:14:01;;;;;;;3.97;1.15;;;;;;;27.95;37.28;97431.84;5024680;28;20080;-76
2021/07/14 10:16:29;;;;;;;3.38;1.40;;;;;;;28.00;37.25;97420.13;5039715;28;20443;-74
2021/07/14 10:19:07;;;;;;;4.10;1.00;;;;;;;27.96;37.61;97418.56;5027402;28;20025;-75
2021/07/14 10:21:42;;;;;;;3.92;2.05;;;;;;;28.46;37.00;97405.38;5022041;28;20052;-76
2021/07/14 10:24:10;;;;;;;6.13;1.58;;;;;;;28.06;37.13;97403.59;5041928;28;20540;-73
2021/07/14 10:26:38;;;;;;;1.58;1.02;;;;;;;28.10;38.53;97410.75;5029195;28;20036;-75
2021/07/14 10:29:05;;;;;;;2.40;1.33;;;;;;;28.60;39.13;97415.63;5046886;28;20856;-74
2021/07/14 10:31:31;;;;;;;5.90;2.00;;;;;;;28.55;36.38;97408.44;5048639;28;20029;-74
2021/07/14 10:33:57;;;;;;;3.17;1.23;;;;;;;28.96;36.84;97413.81;5029384;28;20021;-74
2021/07/14 10:36:27;;;;;;;4.53;1.60;;;;;;;29.12;36.80;97413.09;5039463;28;20087;-74
2021/07/14 10:38:57;;;;;;;1.98;1.17;;;;;;;28.94;35.98;97415.47;5043071;28;20030;-74
2021/07/14 10:41:22;;;;;;;4.50;1.40;;;;;;;29.03;36.29;97415.69;5039619;28;20088;-76
2021/07/14 10:43:50;;;;;;;5.13;1.58;;;;;;;28.86;35.84;97411.16;5043347;28;20033;-76
2021/07/14 10:46:17;;;;;;;10.23;1.88;;;;;;;28.73;36.53;97418.63;5039968;28;20032;-72
2021/07/14 10:48:43;;;;;;;3.88;1.58;;;;;;;28.87;36.00;97412.75;5040135;28;20059;-74
2021/07/14 10:51:08;;;;;;;4.88;1.33;;;;;;;28.47;37.14;97417.44;5024881;28;20385;-73
2021/07/14 10:53:36;;;;;;;3.95;1.45;;;;;;;27.64;38.94;97408.56;5036249;28;20142;-74
2021/07/14 10:56:02;;;;;;;7.25;1.50;;;;;;;27.57;39.98;97417.06;5041820;28;20020;-74
2021/07/14 10:58:29;;;;;;;3.10;1.10;;;;;;;27.83;39.40;97401.47;5022868;28;20109;-74
2021/07/14 11:00:57;;;;;;;6.50;1.65;;;;;;;28.61;38.24;97406.72;5042024;28;20021;-77
2021/07/14 11:03:32;;;;;;;9.45;1.20;;;;;;;28.59;38.80;97412.00;5024527;28;20091;-74
2021/07/14 11:05:58;;;;;;;5.43;1.75;;;;;;;28.12;39.63;97408.34;5045143;28;20021;-74
2021/07/14 11:08:42;;;;;;;6.70;2.00;;;;;;;28.27;39.79;97410.91;5040112;28;20108;-74
2021/07/14 11:11:11;;;;;;;4.40;1.15;;;;;;;28.55;39.43;97405.63;5039395;28;20018;-73
2021/07/14 11:13:39;;;;;;;3.80;1.17;;;;;;;28.94;37.18;97407.00;5040697;28;20029;-73
2021/07/14 11:16:30;;;;;;;5.75;1.58;;;;;;;28.83;38.50;97401.56;5038969;28;20032;-73
2021/07/14 11:19:12;;;;;;;4.18;1.40;;;;;;;28.60;39.15;97390.28;5021456;28;20048;-74
2021/07/14 11:21:54;;;;;;;7.50;1.70;;;;;;;28.68;38.94;97394.59;5038510;28;20644;-73
2021/07/14 11:24:47;;;;;;;5.22;1.27;;;;;;;28.86;38.79;97403.50;5040098;28;20032;-75
2021/07/14 11:27:20;;;;;;;3.63;1.48;;;;;;;29.48;38.28;97418.84;5037709;28;20065;-73
2021/07/14 11:29:51;;;;;;;3.53;1.35;;;;;;;29.53;37.12;97432.47;5000983;28;20062;-74
2021/07/14 11:32:34;;;;;;;4.00;1.30;;;;;;;29.54;37.26;97425.63;5020031;28;20132;-75
2021/07/14 11:35:03;;;;;;;2.35;1.33;;;;;;;29.89;36.05;97432.53;5020473;28;20032;-72
2021/07/14 11:37:32;;;;;;;4.07;1.20;;;;;;;29.16;36.92;97430.75;5020552;28;20094;-73
2021/07/14 11:42:54;;;;;;;5.85;2.50;;;;;;;29.46;36.76;97436.22;5019650;28;20057;-73